Time;durP1;ratioP1;P1;durP2;ratioP2;P2;SDS_P1;SDS_P2;PMS_P1;PMS_P2;Temp;Humidity;BMP_temperature;BMP_pressure;BME280_temperature;BME280_humidity;BME280_pressure;Samples;Min_cycle;Max_cycle;Signal;HPM_P1;HPM_P2
2022/10/25 00:01:42;;;;;;;;;;;13.70;99.90;;;;;;5032441;28;19971;-62
2022/10/25 00:04:10;;;;;;;;;;;13.70;99.90;;;;;;5041215;28;20022;-61
2022/10/25 00:06:38;;;;;;;;;;;13.70;99.90;;;;;;5052971;28;19972;-62
2022/10/25 00:09:06;;;;;;;;;;;13.70;99.90;;;;;;5052295;28;19974;-62
2022/10/25 00:11:33;;;;;;;;;;;13.70;99.90;;;;;;5052046;28;19964;-61
2022/10/25 00:14:02;;;;;;;;;;;13.70;99.90;;;;;;5057512;28;19968;-62
2022/10/25 00:16:34;;;;;;;;;;;13.70;99.90;;;;;;5063167;28;20363;-61
2022/10/25 00:19:03;;;;;;;;;;;13.60;99.90;;;;;;5052595;28;20357;-63
2022/10/25 00:21:31;;;;;;;;;;;13.40;99.90;;;;;;5051942;28;19999;-61
2022/10/25 00:23:59;;;;;;;;;;;13.30;99.90;;;;;;5052267;28;19975;-62
2022/10/25 00:26:27;;;;;;;;;;;13.30;99.90;;;;;;5052351;28;19968;-61
2022/10/25 00:28:54;;;;;;;;;;;13.30;99.90;;;;;;5060401;28;20361;-62
2022/10/25 00:31:23;;;;;;;;;;;13.20;99.90;;;;;;5052430;28;20009;-61
2022/10/25 00:33:51;;;;;;;;;;;13.10;99.90;;;;;;5052695;28;19979;-61
2022/10/25 00:36:21;;;;;;;;;;;12.90;99.90;;;;;;5075709;23;19976;-65
2022/10/25 00:38:49;;;;;;;;;;;12.70;99.90;;;;;;5044146;28;19968;-64
2022/10/25 00:41:18;;;;;;;;;;;12.70;99.90;;;;;;5050466;28;20498;-65
2022/10/25 00:43:47;;;;;;;;;;;12.60;99.90;;;;;;5051866;28;20445;-65
2022/10/25 00:46:20;;;;;;;;;;;12.60;99.90;;;;;;5051872;28;19990;-64
2022/10/25 00:48:51;;;;;;;;;;;12.60;99.90;;;;;;5051832;28;19983;-64
2022/10/25 00:51:21;;;;;;;;;;;12.60;99.90;;;;;;5051355;28;19968;-65
2022/10/25 00:53:49;;;;;;;;;;;12.60;99.90;;;;;;5051807;28;19968;-65
2022/10/25 00:56:19;;;;;;;;;;;12.60;99.90;;;;;;5048654;28;19975;-65
2022/10/25 00:58:49;;;;;;;;;;;12.70;99.90;;;;;;5056644;28;19964;-65
2022/10/25 01:01:17;;;;;;;;;;;12.60;99.90;;;;;;5051348;28;19968;-64
2022/10/25 01:03:47;;;;;;;;;;;12.70;99.90;;;;;;5051802;28;20055;-65
2022/10/25 01:06:17;;;;;;;;;;;12.70;99.90;;;;;;5051724;28;20456;-64
2022/10/25 01:08:48;;;;;;;;;;;12.70;99.90;;;;;;5051726;28;20058;-64
2022/10/25 01:11:15;;;;;;;;;;;12.80;99.90;;;;;;5051399;28;19968;-65
2022/10/25 01:13:48;;;;;;;;;;;12.90;99.90;;;;;;5051629;28;20063;-65
2022/10/25 01:16:21;;;;;;;;;;;12.90;99.90;;;;;;5051616;28;19972;-65
2022/10/25 01:18:53;;;;;;;;;;;12.90;99.90;;;;;;5051241;28;19968;-65
2022/10/25 01:21:41;;;;;;;;;;;13.00;99.90;;;;;;5051291;28;19979;-65
2022/10/25 01:24:27;;;;;;;;;;;13.00;99.90;;;;;;5051685;28;20352;-65
2022/10/25 01:27:11;;;;;;;;;;;13.00;99.90;;;;;;5054527;28;20353;-65
2022/10/25 01:29:49;;;;;;;;;;;13.00;99.90;;;;;;5052170;28;20059;-65
2022/10/25 01:32:22;;;;;;;;;;;12.90;99.90;;;;;;5071720;28;19967;-65
2022/10/25 01:34:52;;;;;;;;;;;13.00;99.90;;;;;;5072205;28;20333;-66
2022/10/25 01:37:24;;;;;;;;;;;12.90;99.90;;;;;;5071519;28;19971;-65
2022/10/25 01:39:54;;;;;;;;;;;12.90;99.90;;;;;;5050718;28;20063;-64
2022/10/25 01:42:25;;;;;;;;;;;12.90;99.90;;;;;;5054380;28;19976;-65
2022/10/25 01:44:58;;;;;;;;;;;12.90;99.90;;;;;;5055242;28;19972;-64
2022/10/25 01:47:29;;;;;;;;;;;13.00;99.90;;;;;;5055235;28;19974;-64
2022/10/25 01:49:58;;;;;;;;;;;12.90;99.90;;;;;;5054521;28;19968;-65
2022/10/25 01:52:26;;;;;;;;;;;12.90;99.90;;;;;;5055070;28;19968;-65
2022/10/25 01:54:54;;;;;;;;;;;12.80;99.90;;;;;;5054743;28;19968;-64
2022/10/25 01:57:34;;;;;;;;;;;12.80;99.90;;;;;;5060077;28;19974;-65
2022/10/25 02:00:05;;;;;;;;;;;12.80;99.90;;;;;;5069571;28;20326;-64
2022/10/25 02:02:37;;;;;;;;;;;12.90;99.90;;;;;;5075035;28;19978;-64
2022/10/25 02:05:10;;;;;;;;;;;12.90;99.90;;;;;;5075014;28;19979;-65
2022/10/25 02:07:38;;;;;;;;;;;12.90;99.90;;;;;;5074754;28;19967;-65
2022/10/25 02:10:07;;;;;;;;;;;12.90;99.90;;;;;;5074152;28;19977;-64
2022/10/25 02:12:41;;;;;;;;;;;12.90;99.90;;;;;;5074723;28;19975;-65
2022/10/25 02:15:10;;;;;;;;;;;12.90;99.90;;;;;;5061038;28;19968;-65
2022/10/25 02:17:41;;;;;;;;;;;12.90;99.90;;;;;;5053949;28;20453;-65
2022/10/25 02:20:10;;;;;;;;;;;12.90;99.90;;;;;;5054152;28;19973;-64
2022/10/25 02:22:38;;;;;;;;;;;12.80;99.90;;;;;;5054550;28;19968;-65
2022/10/25 02:25:08;;;;;;;;;;;12.80;99.90;;;;;;5054320;28;19968;-65
2022/10/25 02:27:37;;;;;;;;;;;12.90;99.90;;;;;;5059450;28;19964;-65
2022/10/25 02:30:06;;;;;;;;;;;12.90;99.90;;;;;;5066505;28;19975;-66
2022/10/25 02:32:34;;;;;;;;;;;12.90;99.90;;;;;;5061143;28;19972;-65
2022/10/25 02:35:03;;;;;;;;;;;12.80;99.90;;;;;;5054187;28;19969;-64
2022/10/25 02:37:31;;;;;;;;;;;12.80;99.90;;;;;;5054050;28;19968;-64
2022/10/25 02:39:59;;;;;;;;;;;12.80;99.90;;;;;;5045616;28;20066;-64
2022/10/25 02:42:27;;;;;;;;;;;12.80;99.90;;;;;;5054141;28;19968;-65
2022/10/25 02:44:55;;;;;;;;;;;12.70;99.90;;;;;;5054067;28;19975;-65
2022/10/25 02:47:22;;;;;;;;;;;12.70;99.90;;;;;;5053702;28;19974;-65
2022/10/25 02:49:50;;;;;;;;;;;12.60;99.90;;;;;;5053557;28;19972;-65
2022/10/25 02:52:19;;;;;;;;;;;12.60;99.90;;;;;;5053610;28;19972;-65
2022/10/25 02:54:47;;;;;;;;;;;12.60;99.90;;;;;;5053927;28;19968;-65
2022/10/25 02:57:15;;;;;;;;;;;12.50;99.90;;;;;;5058901;28;19968;-65
2022/10/25 02:59:42;;;;;;;;;;;12.40;99.90;;;;;;5062934;28;19967;-65
2022/10/25 03:02:10;;;;;;;;;;;12.50;99.90;;;;;;5062892;28;19968;-65
2022/10/25 03:04:38;;;;;;;;;;;12.50;99.90;;;;;;5053676;28;19998;-65
2022/10/25 03:07:05;;;;;;;;;;;12.50;99.90;;;;;;5053585;28;19975;-65
2022/10/25 03:09:34;;;;;;;;;;;12.50;99.90;;;;;;5053520;28;20070;-65
2022/10/25 03:12:02;;;;;;;;;;;12.50;99.90;;;;;;5053217;28;19972;-65
2022/10/25 03:14:30;;;;;;;;;;;12.50;99.90;;;;;;5053488;28;19978;-66
2022/10/25 03:16:57;;;;;;;;;;;12.50;99.90;;;;;;5053010;28;19968;-65
2022/10/25 03:19:25;;;;;;;;;;;12.50;99.90;;;;;;5053621;28;19981;-66
2022/10/25 03:21:53;;;;;;;;;;;12.50;99.90;;;;;;5053074;28;19968;-65
2022/10/25 03:24:20;;;;;;;;;;;12.50;99.90;;;;;;5053446;28;20062;-65
2022/10/25 03:26:49;;;;;;;;;;;12.50;99.90;;;;;;5054976;28;19964;-65
2022/10/25 03:29:17;;;;;;;;;;;12.40;99.90;;;;;;5061653;28;19974;-65
2022/10/25 03:31:45;;;;;;;;;;;12.50;99.90;;;;;;5064757;28;19964;-65
2022/10/25 03:34:13;;;;;;;;;;;12.50;99.90;;;;;;5053257;28;19968;-65
2022/10/25 03:36:40;;;;;;;;;;;12.40;99.90;;;;;;5052845;28;19991;-65
2022/10/25 03:39:09;;;;;;;;;;;12.50;99.90;;;;;;5053110;28;19974;-65
2022/10/25 03:41:37;;;;;;;;;;;12.50;99.90;;;;;;5052594;28;19994;-65
2022/10/25 03:44:06;;;;;;;;;;;12.50;99.90;;;;;;5052893;28;19990;-65
2022/10/25 03:46:34;;;;;;;;;;;12.40;99.90;;;;;;5052542;28;19964;-66
2022/10/25 03:49:01;;;;;;;;;;;12.40;99.90;;;;;;5052970;28;19976;-65
2022/10/25 03:51:29;;;;;;;;;;;12.40;99.90;;;;;;5052415;28;19972;-65
2022/10/25 03:53:57;;;;;;;;;;;12.40;99.90;;;;;;5052797;28;19968;-65
2022/10/25 03:56:24;;;;;;;;;;;12.40;99.90;;;;;;5052435;28;19979;-65
2022/10/25 03:58:53;;;;;;;;;;;12.50;99.90;;;;;;5060169;28;19964;-65
2022/10/25 04:01:22;;;;;;;;;;;12.40;99.90;;;;;;5066530;28;19963;-65
2022/10/25 04:03:49;;;;;;;;;;;12.30;99.90;;;;;;5052012;28;19972;-65
2022/10/25 04:06:17;;;;;;;;;;;12.30;99.90;;;;;;5052591;28;20344;-65
2022/10/25 04:08:45;;;;;;;;;;;12.20;99.90;;;;;;5052475;28;19994;-65
2022/10/25 04:11:13;;;;;;;;;;;12.20;99.90;;;;;;5051897;28;19974;-64
2022/10/25 04:13:40;;;;;;;;;;;12.20;99.90;;;;;;5052477;28;19968;-64
2022/10/25 04:16:08;;;;;;;;;;;12.20;99.90;;;;;;5052110;28;19965;-64
2022/10/25 04:18:37;;;;;;;;;;;12.20;99.90;;;;;;5052192;28;20055;-65
2022/10/25 04:21:05;;;;;;;;;;;12.20;99.90;;;;;;5051961;28;19974;-65
2022/10/25 04:23:33;;;;;;;;;;;12.20;99.90;;;;;;5052194;28;19968;-64
2022/10/25 04:26:01;;;;;;;;;;;12.10;99.90;;;;;;5052171;28;20446;-64
2022/10/25 04:28:28;;;;;;;;;;;12.10;99.90;;;;;;5057299;28;19968;-64
2022/10/25 04:30:56;;;;;;;;;;;12.10;99.90;;;;;;5068256;28;19981;-65
2022/10/25 04:33:24;;;;;;;;;;;12.20;99.90;;;;;;5052072;28;19968;-65
2022/10/25 04:35:56;;;;;;;;;;;12.10;99.90;;;;;;5052013;28;19974;-65
2022/10/25 04:38:24;;;;;;;;;;;12.10;99.90;;;;;;5051938;28;20022;-65
2022/10/25 04:40:55;;;;;;;;;;;12.10;99.90;;;;;;5051552;28;20436;-64
2022/10/25 04:43:22;;;;;;;;;;;12.20;99.90;;;;;;5052046;28;20448;-65
2022/10/25 04:45:50;;;;;;;;;;;12.10;99.90;;;;;;5052214;28;20342;-64
2022/10/25 04:48:18;;;;;;;;;;;12.20;99.90;;;;;;5051796;28;19975;-64
2022/10/25 04:50:46;;;;;;;;;;;12.20;99.90;;;;;;5051470;28;19968;-65
2022/10/25 04:53:15;;;;;;;;;;;12.20;99.90;;;;;;5051659;28;20008;-64
2022/10/25 04:55:43;;;;;;;;;;;12.20;99.90;;;;;;5051509;28;20007;-65
2022/10/25 04:58:11;;;;;;;;;;;12.20;99.90;;;;;;5056933;28;20433;-65
2022/10/25 05:00:38;;;;;;;;;;;12.20;99.90;;;;;;5051519;28;19972;-66
2022/10/25 05:03:06;;;;;;;;;;;12.20;99.90;;;;;;5051468;28;20003;-66
2022/10/25 05:05:39;;;;;;;;;;;12.20;99.90;;;;;;5051849;28;20031;-65
2022/10/25 05:08:07;;;;;;;;;;;12.20;99.90;;;;;;5051739;28;19969;-65
2022/10/25 05:10:36;;;;;;;;;;;12.30;99.90;;;;;;5051094;28;19968;-66
2022/10/25 05:13:04;;;;;;;;;;;12.20;99.90;;;;;;5051823;28;19969;-65
2022/10/25 05:15:31;;;;;;;;;;;12.10;99.90;;;;;;5053091;28;20450;-65
2022/10/25 05:17:59;;;;;;;;;;;11.90;99.90;;;;;;5055902;28;20075;-64
2022/10/25 05:20:28;;;;;;;;;;;11.90;99.90;;;;;;5055430;28;19972;-65
2022/10/25 05:22:55;;;;;;;;;;;11.80;99.90;;;;;;5055358;28;19968;-65
2022/10/25 05:25:23;;;;;;;;;;;11.60;99.90;;;;;;5055538;28;19968;-65
2022/10/25 05:27:52;;;;;;;;;;;11.40;99.90;;;;;;5053778;28;19971;-66
2022/10/25 05:30:20;;;;;;;;;;;11.40;99.90;;;;;;5051488;28;20002;-65
2022/10/25 05:32:49;;;;;;;;;;;11.30;99.90;;;;;;5055133;28;19972;-64
2022/10/25 05:35:17;;;;;;;;;;;11.30;99.90;;;;;;5050622;28;20053;-64
2022/10/25 05:37:45;;;;;;;;;;;11.30;99.90;;;;;;5055077;28;20002;-66
2022/10/25 05:40:12;;;;;;;;;;;11.30;99.90;;;;;;5055364;28;19975;-65
2022/10/25 05:42:40;;;;;;;;;;;11.50;99.90;;;;;;5054953;28;19968;-65
2022/10/25 05:45:10;;;;;;;;;;;11.60;99.90;;;;;;5054798;28;19976;-65
2022/10/25 05:47:37;;;;;;;;;;;11.60;99.90;;;;;;5053176;28;21808;-66
2022/10/25 05:50:05;;;;;;;;;;;11.70;99.90;;;;;;5046310;28;20361;-65
2022/10/25 05:52:33;;;;;;;;;;;11.80;99.90;;;;;;5051510;28;20482;-65
2022/10/25 05:55:01;;;;;;;;;;;11.80;99.90;;;;;;5055005;28;19974;-65
2022/10/25 05:57:29;;;;;;;;;;;11.80;99.90;;;;;;5050973;28;19964;-65
2022/10/25 05:59:57;;;;;;;;;;;11.90;99.90;;;;;;5065267;28;19987;-65
2022/10/25 06:02:26;;;;;;;;;;;11.90;99.90;;;;;;5074730;28;19968;-66
2022/10/25 06:04:54;;;;;;;;;;;11.90;99.90;;;;;;5053921;28;20531;-65
2022/10/25 06:07:22;;;;;;;;;;;12.00;99.90;;;;;;5054315;28;19975;-66
2022/10/25 06:09:49;;;;;;;;;;;12.00;99.90;;;;;;5044239;28;19964;-65
2022/10/25 06:12:17;;;;;;;;;;;12.00;99.90;;;;;;5034515;28;19968;-66
2022/10/25 06:14:45;;;;;;;;;;;12.10;99.90;;;;;;5052386;28;19964;-65
2022/10/25 06:17:12;;;;;;;;;;;12.10;99.90;;;;;;5060425;28;20433;-65
2022/10/25 06:19:41;;;;;;;;;;;12.20;99.90;;;;;;5062976;28;19964;-64
2022/10/25 06:22:09;;;;;;;;;;;12.20;99.90;;;;;;5060058;28;19964;-64
2022/10/25 06:24:37;;;;;;;;;;;12.30;99.90;;;;;;5051808;28;19972;-65
2022/10/25 06:27:05;;;;;;;;;;;12.30;99.90;;;;;;5051281;28;19972;-65
2022/10/25 06:29:32;;;;;;;;;;;12.30;99.90;;;;;;5054861;28;19976;-66
2022/10/25 06:32:00;;;;;;;;;;;12.20;99.90;;;;;;5055256;28;19964;-65
2022/10/25 06:34:28;;;;;;;;;;;12.10;99.90;;;;;;5060487;28;20457;-65
2022/10/25 06:36:57;;;;;;;;;;;12.20;99.90;;;;;;5070625;23;19968;-62
2022/10/25 06:39:24;;;;;;;;;;;12.20;99.90;;;;;;5052026;28;19968;-62
2022/10/25 06:41:52;;;;;;;;;;;12.40;99.90;;;;;;5053314;28;20018;-62
2022/10/25 06:44:20;;;;;;;;;;;12.30;99.90;;;;;;5053651;28;19968;-62
2022/10/25 06:46:48;;;;;;;;;;;12.20;99.90;;;;;;5053688;28;20445;-62
2022/10/25 06:49:35;;;;;;;;;;;12.00;99.90;;;;;;5053609;28;20488;-62
2022/10/25 06:52:05;;;;;;;;;;;11.90;99.90;;;;;;5053925;28;19972;-62
2022/10/25 06:54:32;;;;;;;;;;;11.80;99.90;;;;;;5053265;28;19979;-62
2022/10/25 06:57:00;;;;;;;;;;;11.80;99.90;;;;;;5053428;28;19976;-62
2022/10/25 06:59:28;;;;;;;;;;;12.00;99.90;;;;;;5061590;28;19972;-62
2022/10/25 07:01:56;;;;;;;;;;;12.00;99.90;;;;;;5054124;28;20014;-62
2022/10/25 07:04:24;;;;;;;;;;;12.20;99.90;;;;;;5053848;28;20063;-62
2022/10/25 07:06:51;;;;;;;;;;;12.30;99.90;;;;;;5053610;28;19979;-62
2022/10/25 07:09:24;;;;;;;;;;;12.40;99.90;;;;;;5053761;28;19972;-62
2022/10/25 07:11:52;;;;;;;;;;;12.40;99.90;;;;;;5066072;28;19990;-61
2022/10/25 07:14:20;;;;;;;;;;;12.40;99.90;;;;;;5073036;28;20066;-62
2022/10/25 07:16:47;;;;;;;;;;;12.30;99.90;;;;;;5073436;28;19979;-62
2022/10/25 07:19:15;;;;;;;;;;;12.40;99.90;;;;;;5073350;28;20444;-62
2022/10/25 07:21:43;;;;;;;;;;;12.50;99.90;;;;;;5072996;28;19967;-62
2022/10/25 07:24:11;;;;;;;;;;;12.50;99.90;;;;;;5052165;28;20478;-62
2022/10/25 07:26:40;;;;;;;;;;;12.60;99.90;;;;;;5038068;28;20060;-62
2022/10/25 07:29:09;;;;;;;;;;;12.80;99.90;;;;;;5037502;28;19976;-62
2022/10/25 07:31:37;;;;;;;;;;;12.90;99.90;;;;;;5035338;28;20585;-63
2022/10/25 07:34:05;;;;;;;;;;;13.00;99.90;;;;;;5036593;28;20010;-62
2022/10/25 07:36:33;;;;;;;;;;;13.00;99.90;;;;;;5037847;28;19963;-62
2022/10/25 07:39:01;;;;;;;;;;;13.10;99.90;;;;;;5031220;28;19968;-62
2022/10/25 07:41:29;;;;;;;;;;;13.30;99.90;;;;;;5027064;28;19968;-62
2022/10/25 07:43:58;;;;;;;;;;;13.50;99.90;;;;;;5031387;28;19975;-62
2022/10/25 07:46:26;;;;;;;;;;;13.60;99.90;;;;;;5029078;28;19968;-61
2022/10/25 07:48:53;;;;;;;;;;;13.60;99.90;;;;;;5029619;28;20652;-63
2022/10/25 07:51:24;;;;;;;;;;;13.70;99.90;;;;;;5024338;28;19972;-61
2022/10/25 07:53:52;;;;;;;;;;;13.80;99.90;;;;;;5030953;28;19984;-62
2022/10/25 07:56:21;;;;;;;;;;;13.80;99.90;;;;;;5030695;28;19978;-62
2022/10/25 07:58:50;;;;;;;;;;;13.90;99.90;;;;;;5031891;28;19979;-62
2022/10/25 08:01:20;;;;;;;;;;;13.70;99.90;;;;;;5027131;28;19976;-62
2022/10/25 08:03:48;;;;;;;;;;;13.60;99.90;;;;;;5029608;28;19979;-62
2022/10/25 08:06:16;;;;;;;;;;;13.50;99.90;;;;;;5031499;28;20565;-62
2022/10/25 08:08:43;;;;;;;;;;;13.50;99.90;;;;;;5029183;28;20464;-62
2022/10/25 08:11:11;;;;;;;;;;;13.50;99.90;;;;;;5028341;28;19972;-62
2022/10/25 08:13:39;;;;;;;;;;;13.70;99.90;;;;;;5030966;28;19971;-62
2022/10/25 08:16:07;;;;;;;;;;;13.70;99.90;;;;;;5030760;28;20113;-62
2022/10/25 08:18:36;;;;;;;;;;;13.80;99.90;;;;;;5027776;28;19980;-62
2022/10/25 08:21:04;;;;;;;;;;;13.80;99.90;;;;;;5027897;28;20441;-62
2022/10/25 08:23:32;;;;;;;;;;;13.90;99.90;;;;;;5029025;28;19971;-62
2022/10/25 08:26:00;;;;;;;;;;;14.00;99.90;;;;;;5030205;28;19992;-62
2022/10/25 08:28:29;;;;;;;;;;;14.20;99.90;;;;;;5030876;28;20492;-63
2022/10/25 08:30:57;;;;;;;;;;;14.20;99.90;;;;;;5027215;28;19975;-62
2022/10/25 08:33:25;;;;;;;;;;;14.30;99.90;;;;;;5029676;28;20928;-62
2022/10/25 08:35:54;;;;;;;;;;;14.40;99.90;;;;;;5028110;28;20037;-62
2022/10/25 08:38:22;;;;;;;;;;;14.50;99.90;;;;;;5030851;28;19972;-62
2022/10/25 08:40:52;;;;;;;;;;;14.70;99.90;;;;;;5027309;28;19979;-62
2022/10/25 08:43:26;;;;;;;;;;;14.70;99.90;;;;;;5031143;28;19976;-62
2022/10/25 08:45:56;;;;;;;;;;;14.80;99.90;;;;;;5029325;28;20019;-62
2022/10/25 08:48:26;;;;;;;;;;;14.70;99.90;;;;;;5024580;28;19972;-62
2022/10/25 08:50:57;;;;;;;;;;;14.80;99.90;;;;;;5024117;28;20452;-62
2022/10/25 08:53:27;;;;;;;;;;;14.90;99.90;;;;;;5029384;28;19982;-62
2022/10/25 08:55:55;;;;;;;;;;;14.80;99.90;;;;;;5030836;28;19983;-62
2022/10/25 08:58:45;;;;;;;;;;;14.70;99.90;;;;;;5026857;28;19972;-62
2022/10/25 09:01:14;;;;;;;;;;;14.60;99.90;;;;;;5027605;28;19975;-62
2022/10/25 09:03:42;;;;;;;;;;;14.70;99.90;;;;;;5027412;28;19968;-62
2022/10/25 09:06:17;;;;;;;;;;;14.80;99.90;;;;;;5030884;28;19983;-62
2022/10/25 09:08:56;;;;;;;;;;;15.00;99.90;;;;;;5030320;28;19982;-63
2022/10/25 09:11:35;;;;;;;;;;;15.30;99.90;;;;;;5021405;28;19976;-62
2022/10/25 09:14:05;;;;;;;;;;;15.50;99.90;;;;;;5030534;28;19972;-62
2022/10/25 09:16:37;;;;;;;;;;;15.90;99.90;;;;;;5029680;28;20378;-63
2022/10/25 09:19:08;;;;;;;;;;;16.20;99.90;;;;;;5029950;28;19971;-62
2022/10/25 09:21:41;;;;;;;;;;;16.40;99.90;;;;;;5022838;28;19971;-62
2022/10/25 09:24:12;;;;;;;;;;;16.50;99.90;;;;;;5025612;28;19982;-62
2022/10/25 09:26:42;;;;;;;;;;;16.60;99.90;;;;;;5030401;28;19977;-63
2022/10/25 09:29:21;;;;;;;;;;;16.70;99.90;;;;;;5024470;28;19971;-63
2022/10/25 09:31:50;;;;;;;;;;;16.60;99.90;;;;;;5021235;28;19971;-62
2022/10/25 09:34:20;;;;;;;;;;;16.60;99.90;;;;;;5030265;28;20859;-62
2022/10/25 09:36:52;;;;;;;;;;;16.60;99.90;;;;;;5031269;28;19971;-62
2022/10/25 09:39:24;;;;;;;;;;;16.60;99.90;;;;;;5036746;28;20375;-62
2022/10/25 09:41:53;;;;;;;;;;;16.50;99.90;;;;;;5037971;28;20461;-62
2022/10/25 09:44:29;;;;;;;;;;;16.40;99.90;;;;;;5034525;28;19980;-63
2022/10/25 09:46:58;;;;;;;;;;;16.40;99.90;;;;;;5035761;28;19971;-63
2022/10/25 09:49:29;;;;;;;;;;;16.30;99.90;;;;;;5040085;28;19975;-62
2022/10/25 09:52:02;;;;;;;;;;;16.20;99.90;;;;;;5038648;28;19966;-62
2022/10/25 09:54:32;;;;;;;;;;;16.10;99.90;;;;;;5039776;28;19963;-62
2022/10/25 09:56:59;;;;;;;;;;;16.00;99.90;;;;;;5039988;28;19967;-63
2022/10/25 09:59:27;;;;;;;;;;;15.90;99.90;;;;;;5039691;28;20429;-63
2022/10/25 10:01:55;;;;;;;;;;;15.90;99.90;;;;;;5037315;28;20029;-63
2022/10/25 10:04:25;;;;;;;;;;;16.00;99.90;;;;;;5039085;28;19997;-63
2022/10/25 10:06:56;;;;;;;;;;;16.20;99.90;;;;;;5038593;28;20294;-63
2022/10/25 10:09:28;;;;;;;;;;;16.30;99.90;;;;;;5043422;28;19978;-63
2022/10/25 10:11:56;;;;;;;;;;;16.40;99.90;;;;;;5039998;28;19982;-63
2022/10/25 10:14:27;;;;;;;;;;;16.30;99.90;;;;;;5037927;28;19972;-63
2022/10/25 10:16:56;;;;;;;;;;;16.40;99.90;;;;;;5043452;28;19976;-63
2022/10/25 10:19:24;;;;;;;;;;;16.40;99.90;;;;;;5038996;28;19967;-63
2022/10/25 10:21:53;;;;;;;;;;;16.50;99.90;;;;;;5053085;28;19962;-63
2022/10/25 10:24:22;;;;;;;;;;;16.60;99.90;;;;;;5056184;28;19977;-63
2022/10/25 10:26:54;;;;;;;;;;;16.70;99.90;;;;;;5058627;28;19973;-63
2022/10/25 10:29:22;;;;;;;;;;;16.80;99.90;;;;;;5055847;28;19973;-63
2022/10/25 10:31:50;;;;;;;;;;;16.80;99.90;;;;;;5057539;28;19963;-63
2022/10/25 10:34:25;;;;;;;;;;;16.90;99.90;;;;;;5058638;28;19977;-63
2022/10/25 10:37:03;;;;;;;;;;;17.00;99.90;;;;;;5056103;28;19979;-63
2022/10/25 10:39:31;;;;;;;;;;;17.10;99.90;;;;;;5074201;28;19974;-62
2022/10/25 10:42:02;;;;;;;;;;;17.10;99.90;;;;;;5074157;28;19990;-63
2022/10/25 10:44:33;;;;;;;;;;;17.10;99.90;;;;;;5074023;28;19967;-63
2022/10/25 10:47:01;;;;;;;;;;;17.00;99.90;;;;;;5073967;28;20006;-63
2022/10/25 10:49:35;;;;;;;;;;;16.90;99.90;;;;;;5074016;28;19967;-63
2022/10/25 10:52:03;;;;;;;;;;;17.10;99.90;;;;;;5059235;28;19971;-63
2022/10/25 10:54:32;;;;;;;;;;;17.10;99.90;;;;;;5053794;28;19990;-63
2022/10/25 10:57:02;;;;;;;;;;;17.00;99.90;;;;;;5053601;28;19967;-63
2022/10/25 10:59:33;;;;;;;;;;;17.10;99.90;;;;;;5053528;28;19967;-63
2022/10/25 11:02:10;;;;;;;;;;;17.10;99.90;;;;;;5053474;28;19967;-63
2022/10/25 11:04:46;;;;;;;;;;;17.10;99.90;;;;;;5053516;28;20006;-63
2022/10/25 11:07:17;;;;;;;;;;;17.00;99.90;;;;;;5053672;28;20461;-63
2022/10/25 11:09:44;;;;;;;;;;;17.20;99.90;;;;;;5053734;28;19977;-63
2022/10/25 11:12:14;;;;;;;;;;;17.50;99.90;;;;;;5054542;28;19967;-63
2022/10/25 11:14:42;;;;;;;;;;;17.70;99.90;;;;;;5053097;28;20438;-63
2022/10/25 11:17:13;;;;;;;;;;;18.10;99.90;;;;;;5053365;28;20437;-63
2022/10/25 11:19:59;;;;;;;;;;;18.40;99.90;;;;;;5053236;28;19973;-63
2022/10/25 11:22:36;;;;;;;;;;;18.60;99.90;;;;;;5053517;28;19972;-63
2022/10/25 11:25:13;;;;;;;;;;;18.70;99.90;;;;;;5053460;28;19971;-63
2022/10/25 11:27:48;;;;;;;;;;;18.70;99.90;;;;;;5045981;28;19969;-63
2022/10/25 11:30:18;;;;;;;;;;;18.50;99.90;;;;;;5049867;28;19967;-63
2022/10/25 11:33:08;;;;;;;;;;;18.30;99.90;;;;;;5052774;28;20053;-64
2022/10/25 11:35:44;;;;;;;;;;;18.20;99.90;;;;;;5052752;28;19971;-63
2022/10/25 11:38:16;;;;;;;;;;;17.90;99.90;;;;;;5032927;28;19971;-63
2022/10/25 11:40:46;;;;;;;;;;;17.90;99.90;;;;;;5033057;28;19973;-63
2022/10/25 11:43:24;;;;;;;;;;;17.80;99.90;;;;;;5042072;28;19973;-63
2022/10/25 11:45:56;;;;;;;;;;;17.70;99.90;;;;;;5052867;28;20464;-63
2022/10/25 11:48:32;;;;;;;;;;;17.90;99.90;;;;;;5052776;28;19971;-63
2022/10/25 11:51:04;;;;;;;;;;;17.90;99.90;;;;;;5052380;28;20371;-63
2022/10/25 11:53:39;;;;;;;;;;;18.10;99.90;;;;;;5052735;28;19971;-63
2022/10/25 11:56:09;;;;;;;;;;;18.20;99.90;;;;;;5052420;28;20350;-63
2022/10/25 11:58:45;;;;;;;;;;;18.20;99.90;;;;;;5052518;28;20507;-63
2022/10/25 12:01:34;;;;;;;;;;;18.20;99.90;;;;;;5053515;28;19966;-61
2022/10/25 12:04:12;;;;;;;;;;;18.20;99.90;;;;;;5054948;28;19970;-61
2022/10/25 12:06:42;;;;;;;;;;;18.10;99.90;;;;;;5052935;28;19962;-62
2022/10/25 12:09:15;;;;;;;;;;;18.00;99.90;;;;;;5068307;28;19989;-63
2022/10/25 12:11:45;;;;;;;;;;;18.10;99.90;;;;;;5067878;28;20057;-63
2022/10/25 12:14:16;;;;;;;;;;;17.90;99.90;;;;;;5050717;28;20348;-62
2022/10/25 12:16:44;;;;;;;;;;;17.90;99.90;;;;;;5065105;28;19963;-62
2022/10/25 12:19:14;;;;;;;;;;;18.00;99.90;;;;;;5059414;28;19971;-62
2022/10/25 12:21:44;;;;;;;;;;;18.00;99.90;;;;;;5049805;28;20186;-63
2022/10/25 12:24:16;;;;;;;;;;;18.10;99.90;;;;;;5054660;28;19966;-63
2022/10/25 12:26:45;;;;;;;;;;;18.30;99.90;;;;;;5052383;28;19967;-63
2022/10/25 12:29:17;;;;;;;;;;;18.50;99.90;;;;;;5055638;28;19974;-63
2022/10/25 12:31:47;;;;;;;;;;;18.40;99.90;;;;;;5051895;28;19973;-62
2022/10/25 12:34:17;;;;;;;;;;;18.80;99.90;;;;;;5051674;28;20005;-62
2022/10/25 12:36:46;;;;;;;;;;;19.50;99.90;;;;;;5051944;28;19971;-62
2022/10/25 12:39:16;;;;;;;;;;;19.80;99.90;;;;;;5051793;28;20050;-62
2022/10/25 12:41:46;;;;;;;;;;;20.00;99.90;;;;;;5051824;28;19967;-62
2022/10/25 12:44:23;;;;;;;;;;;20.50;99.90;;;;;;5051412;28;19967;-63
2022/10/25 12:47:01;;;;;;;;;;;20.80;99.90;;;;;;5051761;28;20008;-63
2022/10/25 12:49:44;;;;;;;;;;;21.00;99.90;;;;;;5052011;28;19967;-62
2022/10/25 12:52:20;;;;;;;;;;;21.60;99.90;;;;;;5057228;28;19998;-62
2022/10/25 12:54:58;;;;;;;;;;;22.00;99.90;;;;;;5051613;28;20055;-62
2022/10/25 12:57:28;;;;;;;;;;;22.40;99.90;;;;;;5051903;28;19977;-63
2022/10/25 13:00:04;;;;;;;;;;;22.30;99.90;;;;;;5051520;28;20063;-63
2022/10/25 13:02:50;;;;;;;;;;;21.90;99.90;;;;;;5051916;28;20017;-63
2022/10/25 13:05:30;;;;;;;;;;;21.60;99.90;;;;;;5011222;28;19971;-63
2022/10/25 13:08:00;;;;;;;;;;;21.10;99.90;;;;;;5033770;28;19977;-63
2022/10/25 13:10:31;;;;;;;;;;;20.60;99.90;;;;;;5051349;28;19970;-62
2022/10/25 13:13:00;;;;;;;;;;;20.00;99.90;;;;;;5051782;28;20065;-63
2022/10/25 13:15:35;;;;;;;;;;;20.00;99.90;;;;;;5051510;28;19973;-63
2022/10/25 13:18:04;;;;;;;;;;;20.30;99.90;;;;;;5051584;28;20443;-63
2022/10/25 13:20:44;;;;;;;;;;;20.30;99.90;;;;;;5053626;28;19971;-62
2022/10/25 13:23:31;;;;;;;;;;;19.90;99.90;;;;;;5071433;28;20447;-62
2022/10/25 13:26:04;;;;;;;;;;;19.70;99.90;;;;;;5061026;28;19980;-62
2022/10/25 13:28:32;;;;;;;;;;;19.60;99.90;;;;;;5051412;28;20069;-63
2022/10/25 13:31:26;;;;;;;;;;;19.50;99.90;;;;;;5051290;28;20006;-62
2022/10/25 13:34:09;;;;;;;;;;;19.40;99.90;;;;;;5051208;28;19975;-63
2022/10/25 13:36:47;;;;;;;;;;;19.30;99.90;;;;;;5067851;28;19970;-63
2022/10/25 13:39:16;;;;;;;;;;;19.20;99.90;;;;;;5075490;28;19966;-62
2022/10/25 13:41:44;;;;;;;;;;;19.00;99.90;;;;;;5075313;28;19996;-63
2022/10/25 13:44:19;;;;;;;;;;;18.90;99.90;;;;;;5055029;28;20065;-63
2022/10/25 13:46:48;;;;;;;;;;;18.90;99.90;;;;;;5058896;28;19968;-63
2022/10/25 13:49:25;;;;;;;;;;;18.90;99.90;;;;;;5075230;28;19970;-63
2022/10/25 13:51:55;;;;;;;;;;;18.90;99.90;;;;;;5074100;28;19977;-62
2022/10/25 13:54:23;;;;;;;;;;;18.70;99.90;;;;;;5069015;28;19962;-63
2022/10/25 13:56:52;;;;;;;;;;;18.60;99.90;;;;;;5072016;28;20061;-63
2022/10/25 13:59:34;;;;;;;;;;;18.50;99.90;;;;;;5060465;28;20021;-63
2022/10/25 14:02:08;;;;;;;;;;;18.50;99.90;;;;;;5061310;28;20061;-63
2022/10/25 14:04:39;;;;;;;;;;;18.60;99.90;;;;;;5034775;28;20062;-63
2022/10/25 14:07:25;;;;;;;;;;;18.50;99.90;;;;;;5034756;28;19973;-62
2022/10/25 14:09:55;;;;;;;;;;;18.40;99.90;;;;;;5072173;28;19973;-62
2022/10/25 14:12:24;;;;;;;;;;;18.40;99.90;;;;;;5074900;28;20065;-62
2022/10/25 14:14:56;;;;;;;;;;;18.30;99.90;;;;;;5074847;28;19978;-62
2022/10/25 14:17:29;;;;;;;;;;;18.20;99.90;;;;;;5055927;28;20325;-62
2022/10/25 14:19:57;;;;;;;;;;;18.10;99.90;;;;;;5057882;28;19973;-62
2022/10/25 14:22:27;;;;;;;;;;;18.00;99.90;;;;;;5065112;28;19967;-62
2022/10/25 14:25:03;;;;;;;;;;;18.00;99.90;;;;;;5054028;28;19998;-61
2022/10/25 14:27:31;;;;;;;;;;;18.00;99.90;;;;;;5059497;28;19970;-62
2022/10/25 14:30:12;;;;;;;;;;;17.90;99.90;;;;;;5058970;28;19973;-62
2022/10/25 14:32:47;;;;;;;;;;;17.90;99.90;;;;;;5057876;28;19968;-63
2022/10/25 14:35:16;;;;;;;;;;;18.00;99.90;;;;;;5051570;28;19985;-63